createdAt,value
2023-08-22T00:00:32.244Z,17.31
2023-08-22T00:01:32.237Z,17.31
2023-08-22T00:02:32.200Z,17.31
2023-08-22T00:03:32.247Z,17.31
2023-08-22T00:04:32.161Z,17.31
2023-08-22T00:05:35.304Z,17.30
2023-08-22T00:06:32.198Z,17.31
2023-08-22T00:07:32.115Z,17.26
2023-08-22T00:08:35.107Z,17.24
2023-08-22T00:09:35.102Z,17.23
2023-08-22T00:10:32.087Z,17.20
2023-08-22T00:11:32.069Z,17.16
2023-08-22T00:12:32.105Z,17.14
2023-08-22T00:13:32.043Z,17.14
2023-08-22T00:14:32.024Z,17.14
2023-08-22T00:15:32.072Z,17.11
2023-08-22T00:16:31.989Z,17.14
2023-08-22T00:17:31.995Z,17.15
2023-08-22T00:18:32.007Z,17.15
2023-08-22T00:19:31.960Z,17.16
2023-08-22T00:20:31.952Z,17.19
2023-08-22T00:21:31.942Z,17.19
2023-08-22T00:22:31.918Z,17.22
2023-08-22T00:23:31.954Z,17.20
2023-08-22T00:24:31.904Z,17.20
2023-08-22T00:25:31.896Z,17.23
2023-08-22T00:26:31.886Z,17.22
2023-08-22T00:27:31.861Z,17.20
2023-08-22T00:28:34.894Z,17.23
2023-08-22T00:29:34.836Z,17.22
2023-08-22T00:30:31.822Z,17.22
2023-08-22T00:31:31.802Z,17.23
2023-08-22T00:32:31.839Z,17.26
2023-08-22T00:33:31.790Z,17.27
2023-08-22T00:34:31.796Z,17.26
2023-08-22T00:35:31.793Z,17.27
2023-08-22T00:36:31.742Z,17.27
2023-08-22T00:37:31.749Z,17.26
2023-08-22T00:38:31.718Z,17.24
2023-08-22T00:39:31.712Z,17.23
2023-08-22T00:40:31.731Z,17.22
2023-08-22T00:41:31.673Z,17.19
2023-08-22T00:42:31.665Z,17.16
2023-08-22T00:43:31.651Z,17.14
2023-08-22T00:44:31.637Z,17.15
2023-08-22T00:45:31.646Z,17.16
2023-08-22T00:46:31.648Z,17.15
2023-08-22T00:47:31.660Z,17.14
2023-08-22T00:48:34.596Z,17.14
2023-08-22T00:49:34.591Z,17.08
2023-08-22T00:50:31.573Z,17.08
2023-08-22T00:51:31.573Z,17.06
2023-08-22T00:52:31.528Z,17.06
2023-08-22T00:53:31.512Z,17.05
2023-08-22T00:54:31.506Z,17.05
2023-08-22T00:55:31.480Z,17.02
2023-08-22T00:56:31.495Z,17.01
2023-08-22T00:57:31.449Z,16.99
2023-08-22T00:58:31.481Z,16.96
2023-08-22T00:59:31.425Z,16.87
2023-08-22T01:00:31.493Z,16.86
2023-08-22T01:01:31.415Z,16.83
2023-08-22T01:02:31.477Z,16.83
2023-08-22T01:03:31.457Z,16.76
2023-08-22T01:04:31.356Z,16.75
2023-08-22T01:05:31.346Z,16.74
2023-08-22T01:06:31.378Z,16.74
2023-08-22T01:07:31.327Z,16.69
2023-08-22T01:08:34.299Z,16.71
2023-08-22T01:09:34.304Z,16.72
2023-08-22T01:10:31.287Z,16.71
2023-08-22T01:11:31.301Z,16.72
2023-08-22T01:12:31.249Z,16.75
2023-08-22T01:13:31.261Z,16.78
2023-08-22T01:14:31.213Z,16.78
2023-08-22T01:15:31.217Z,16.78
2023-08-22T01:16:31.225Z,16.79
2023-08-22T01:17:31.205Z,16.78
2023-08-22T01:18:31.199Z,16.79
2023-08-22T01:19:31.164Z,16.81
2023-08-22T01:20:31.147Z,16.78
2023-08-22T01:21:31.123Z,16.76
2023-08-22T01:22:31.111Z,16.78
2023-08-22T01:23:31.127Z,16.79
2023-08-22T01:24:31.082Z,16.79
2023-08-22T01:25:31.097Z,16.81
2023-08-22T01:26:31.048Z,16.81
2023-08-22T01:27:31.037Z,16.79
2023-08-22T01:28:34.049Z,16.76
2023-08-22T01:29:34.017Z,16.75
2023-08-22T01:30:31.002Z,16.76
2023-08-22T01:31:31.023Z,16.75
2023-08-22T01:32:30.994Z,16.75
2023-08-22T01:33:30.978Z,16.75
2023-08-22T01:34:30.956Z,16.74
2023-08-22T01:35:30.928Z,16.75
2023-08-22T01:36:30.921Z,16.72
2023-08-22T01:37:30.900Z,16.76
2023-08-22T01:38:30.939Z,16.75
2023-08-22T01:39:30.942Z,16.78
2023-08-22T01:40:30.862Z,16.83
2023-08-22T01:41:30.853Z,16.87
2023-08-22T01:42:30.830Z,16.90
2023-08-22T01:43:30.853Z,16.93
2023-08-22T01:44:30.817Z,16.97
2023-08-22T01:45:30.799Z,17.02
2023-08-22T01:46:30.838Z,17.05
2023-08-22T01:47:30.811Z,17.06
2023-08-22T01:48:33.755Z,17.08
2023-08-22T01:49:33.728Z,17.06
2023-08-22T01:50:30.765Z,17.08
2023-08-22T01:51:30.698Z,17.11
2023-08-22T01:52:30.701Z,17.11
2023-08-22T01:53:30.701Z,17.14
2023-08-22T01:54:30.665Z,17.15
2023-08-22T01:55:30.638Z,17.15
2023-08-22T01:56:30.672Z,17.16
2023-08-22T01:57:30.640Z,17.16
2023-08-22T01:58:30.615Z,17.16
2023-08-22T01:59:30.590Z,17.19
2023-08-22T02:00:30.595Z,17.16
2023-08-22T02:01:30.608Z,17.15
2023-08-22T02:02:30.609Z,17.15
2023-08-22T02:03:30.622Z,17.12
2023-08-22T02:04:30.535Z,17.12
2023-08-22T02:05:30.527Z,17.12
2023-08-22T02:06:30.512Z,17.11
2023-08-22T02:07:30.482Z,17.12
2023-08-22T02:08:33.470Z,17.12
2023-08-22T02:09:33.461Z,17.11
2023-08-22T02:10:30.438Z,17.14
2023-08-22T02:11:30.442Z,17.14
2023-08-22T02:12:30.449Z,17.19
2023-08-22T02:13:30.430Z,17.19
2023-08-22T02:14:30.391Z,17.19
2023-08-22T02:15:30.404Z,17.22
2023-08-22T02:16:30.353Z,17.20
2023-08-22T02:17:30.423Z,17.19
2023-08-22T02:18:30.441Z,17.15
2023-08-22T02:19:30.324Z,17.11
2023-08-22T02:20:30.341Z,17.06
2023-08-22T02:21:30.282Z,17.06
2023-08-22T02:22:30.276Z,17.06
2023-08-22T02:23:30.258Z,17.08
2023-08-22T02:24:30.286Z,17.08
2023-08-22T02:25:30.238Z,17.09
2023-08-22T02:26:30.219Z,17.11
2023-08-22T02:27:30.193Z,17.09
2023-08-22T02:28:33.211Z,17.11
2023-08-22T02:29:33.172Z,17.08
2023-08-22T02:30:30.172Z,17.09
2023-08-22T02:31:30.172Z,17.09
2023-08-22T02:32:30.194Z,17.08
2023-08-22T02:33:30.245Z,17.08
2023-08-22T02:34:30.119Z,17.09
2023-08-22T02:35:30.094Z,17.11
2023-08-22T02:36:30.084Z,17.12
2023-08-22T02:37:30.068Z,17.15
2023-08-22T02:38:30.100Z,17.15
2023-08-22T02:39:30.067Z,17.16
2023-08-22T02:40:30.064Z,17.16
2023-08-22T02:41:30.035Z,17.16
2023-08-22T02:42:29.991Z,17.16
2023-08-22T02:43:29.977Z,17.15
2023-08-22T02:44:29.958Z,17.19
2023-08-22T02:45:30.028Z,17.19
2023-08-22T02:46:29.961Z,17.23
2023-08-22T02:47:29.929Z,17.22
2023-08-22T02:48:32.918Z,17.23
2023-08-22T02:49:32.910Z,17.22
2023-08-22T02:50:29.922Z,17.23
2023-08-22T02:51:29.870Z,17.23
2023-08-22T02:52:29.859Z,17.24
2023-08-22T02:53:29.845Z,17.26
2023-08-22T02:54:29.830Z,17.29
2023-08-22T02:55:29.847Z,17.31
2023-08-22T02:56:29.875Z,17.30
2023-08-22T02:57:29.782Z,17.31
2023-08-22T02:58:29.784Z,17.31
2023-08-22T02:59:29.753Z,17.33
2023-08-22T03:00:29.752Z,17.34
2023-08-22T03:01:29.752Z,17.31
2023-08-22T03:02:29.799Z,17.31
2023-08-22T03:03:29.837Z,17.33
2023-08-22T03:04:29.687Z,17.33
2023-08-22T03:05:29.688Z,17.31
2023-08-22T03:06:29.655Z,17.31
2023-08-22T03:07:29.645Z,17.31
2023-08-22T03:08:32.651Z,17.34
2023-08-22T03:09:32.637Z,17.31
2023-08-22T03:10:29.594Z,17.30
2023-08-22T03:11:29.588Z,17.30
2023-08-22T03:12:29.622Z,17.29
2023-08-22T03:13:29.561Z,17.29
2023-08-22T03:14:29.555Z,17.27
2023-08-22T03:15:29.535Z,17.29
2023-08-22T03:16:29.565Z,17.30
2023-08-22T03:17:29.543Z,17.33
2023-08-22T03:18:29.531Z,17.33
2023-08-22T03:19:29.543Z,17.33
2023-08-22T03:20:29.470Z,17.36
2023-08-22T03:21:29.466Z,17.33
2023-08-22T03:22:29.444Z,17.33
2023-08-22T03:23:29.429Z,17.31
2023-08-22T03:24:29.402Z,17.31
2023-08-22T03:25:29.471Z,17.33
2023-08-22T03:26:29.425Z,17.38
2023-08-22T03:27:29.375Z,17.39
2023-08-22T03:28:32.348Z,17.41
2023-08-22T03:29:32.348Z,17.42
2023-08-22T03:30:29.321Z,17.44
2023-08-22T03:31:29.362Z,17.45
2023-08-22T03:32:29.325Z,17.48
2023-08-22T03:33:29.286Z,17.45
2023-08-22T03:34:29.275Z,17.45
2023-08-22T03:35:29.291Z,17.42
2023-08-22T03:36:29.297Z,17.45
2023-08-22T03:37:29.234Z,17.46
2023-08-22T03:38:29.213Z,17.48
2023-08-22T03:39:29.211Z,17.48
2023-08-22T03:40:29.206Z,17.52
2023-08-22T03:41:29.178Z,17.51
2023-08-22T03:42:29.185Z,17.52
2023-08-22T03:43:29.155Z,17.52
2023-08-22T03:44:29.141Z,17.54
2023-08-22T03:45:29.123Z,17.54
2023-08-22T03:46:38.178Z,17.56
2023-08-22T03:47:30.116Z,17.56
2023-08-22T03:48:32.197Z,17.54
2023-08-22T03:49:32.081Z,17.51
2023-08-22T03:50:29.046Z,17.51
2023-08-22T03:51:29.037Z,17.52
2023-08-22T03:52:29.046Z,17.52
2023-08-22T03:53:29.045Z,17.52
2023-08-22T03:54:28.990Z,17.49
2023-08-22T03:55:28.994Z,17.46
2023-08-22T03:56:28.972Z,17.45
2023-08-22T03:57:28.970Z,17.45
2023-08-22T03:58:28.973Z,17.42
2023-08-22T03:59:28.920Z,17.39
2023-08-22T04:00:28.904Z,17.38
2023-08-22T04:01:28.909Z,17.39
2023-08-22T04:02:28.927Z,17.38
2023-08-22T04:03:28.948Z,17.34
2023-08-22T04:04:28.851Z,17.34
2023-08-22T04:05:28.874Z,17.33
2023-08-22T04:06:28.831Z,17.33
2023-08-22T04:07:28.825Z,17.33
2023-08-22T04:08:31.849Z,17.34
2023-08-22T04:09:31.793Z,17.36
2023-08-22T04:10:28.801Z,17.36
2023-08-22T04:11:28.762Z,17.34
2023-08-22T04:12:28.741Z,17.36
2023-08-22T04:13:28.732Z,17.34
2023-08-22T04:14:28.745Z,17.34
2023-08-22T04:15:28.722Z,17.33
2023-08-22T04:16:28.702Z,17.30
2023-08-22T04:17:28.686Z,17.29
2023-08-22T04:18:28.657Z,17.27
2023-08-22T04:19:28.701Z,17.27
2023-08-22T04:20:28.675Z,17.27
2023-08-22T04:21:28.620Z,17.26
2023-08-22T04:22:28.599Z,17.29
2023-08-22T04:23:28.603Z,17.27
2023-08-22T04:24:28.585Z,17.29
2023-08-22T04:25:28.628Z,17.29
2023-08-22T04:26:28.539Z,17.29
2023-08-22T04:27:28.541Z,17.29
2023-08-22T04:28:31.528Z,17.29
2023-08-22T04:29:31.510Z,17.27
2023-08-22T04:30:28.483Z,17.26
2023-08-22T04:31:28.521Z,17.26
2023-08-22T04:32:28.484Z,17.29
2023-08-22T04:33:28.458Z,17.29
2023-08-22T04:34:28.432Z,17.27
2023-08-22T04:35:28.426Z,17.29
2023-08-22T04:36:28.450Z,17.29
2023-08-22T04:37:28.394Z,17.27
2023-08-22T04:38:28.381Z,17.26
2023-08-22T04:39:28.370Z,17.27
2023-08-22T04:40:28.355Z,17.26
2023-08-22T04:41:28.351Z,17.26
2023-08-22T04:42:28.377Z,17.26
2023-08-22T04:43:28.305Z,17.24
2023-08-22T04:44:28.328Z,17.24
2023-08-22T04:45:28.299Z,17.23
2023-08-22T04:46:28.303Z,17.23
2023-08-22T04:47:28.255Z,17.23
2023-08-22T04:48:31.292Z,17.23
2023-08-22T04:49:31.239Z,17.20
2023-08-22T04:50:28.213Z,17.22
2023-08-22T04:51:28.200Z,17.20
2023-08-22T04:52:28.195Z,17.22
2023-08-22T04:53:28.208Z,17.20
2023-08-22T04:54:28.149Z,17.20
2023-08-22T04:55:28.148Z,17.16
2023-08-22T04:56:28.133Z,17.16
2023-08-22T04:57:28.264Z,17.16
2023-08-22T04:58:28.119Z,17.19
2023-08-22T04:59:28.117Z,17.20
2023-08-22T05:00:28.069Z,17.22
2023-08-22T05:01:28.086Z,17.22
2023-08-22T05:02:28.067Z,17.24
2023-08-22T05:03:28.058Z,17.26
2023-08-22T05:04:28.055Z,17.27
2023-08-22T05:05:28.053Z,17.30
2023-08-22T05:06:27.985Z,17.33
2023-08-22T05:07:27.987Z,17.34
2023-08-22T05:08:30.994Z,17.39
2023-08-22T05:09:30.964Z,17.38
2023-08-22T05:10:27.933Z,17.39
2023-08-22T05:11:27.919Z,17.42
2023-08-22T05:12:27.918Z,17.44
2023-08-22T05:13:27.921Z,17.46
2023-08-22T05:14:27.905Z,17.46
2023-08-22T05:15:27.905Z,17.48
2023-08-22T05:16:27.939Z,17.48
2023-08-22T05:17:27.932Z,17.46
2023-08-22T05:18:27.853Z,17.48
2023-08-22T05:19:27.832Z,17.48
2023-08-22T05:20:27.821Z,17.51
2023-08-22T05:21:27.785Z,17.51
2023-08-22T05:22:27.775Z,17.52
2023-08-22T05:23:27.746Z,17.52
2023-08-22T05:24:27.748Z,17.52
2023-08-22T05:25:27.753Z,17.54
2023-08-22T05:26:27.722Z,17.59
2023-08-22T05:27:27.721Z,17.60
2023-08-22T05:28:30.698Z,17.65
2023-08-22T05:29:30.674Z,17.67
2023-08-22T05:30:27.658Z,17.70
2023-08-22T05:31:27.749Z,17.72
2023-08-22T05:32:27.703Z,17.76
2023-08-22T05:33:27.648Z,17.80
2023-08-22T05:34:27.596Z,17.82
2023-08-22T05:35:27.595Z,17.85
2023-08-22T05:36:27.565Z,17.89
2023-08-22T05:37:27.580Z,17.92
2023-08-22T05:38:27.585Z,17.95
2023-08-22T05:39:27.528Z,17.98
2023-08-22T05:40:27.519Z,18.03
2023-08-22T05:41:27.517Z,18.05
2023-08-22T05:42:27.490Z,18.10
2023-08-22T05:43:27.470Z,18.13
2023-08-22T05:44:27.484Z,18.13
2023-08-22T05:45:27.442Z,18.13
2023-08-22T05:46:27.420Z,18.15
2023-08-22T05:47:27.427Z,18.16
2023-08-22T05:48:30.487Z,18.29
2023-08-22T05:49:30.442Z,18.47
2023-08-22T05:50:27.389Z,18.47
2023-08-22T05:51:27.380Z,18.53
2023-08-22T05:52:27.343Z,18.50
2023-08-22T05:53:27.398Z,18.73
2023-08-22T05:54:27.334Z,19.64
2023-08-22T05:55:27.302Z,19.76
2023-08-22T05:56:27.287Z,20.41
2023-08-22T05:57:27.280Z,20.84
2023-08-22T05:58:27.278Z,20.77
2023-08-22T05:59:27.307Z,20.97
2023-08-22T06:00:27.236Z,21.14
2023-08-22T06:01:27.250Z,21.11
2023-08-22T06:02:27.223Z,20.97
2023-08-22T06:03:27.203Z,21.21
2023-08-22T06:04:27.222Z,21.32
2023-08-22T06:05:27.260Z,21.11
2023-08-22T06:06:27.149Z,21.14
2023-08-22T06:07:27.136Z,21.25
2023-08-22T06:08:30.127Z,21.37
2023-08-22T06:09:30.144Z,21.36
2023-08-22T06:10:27.092Z,21.36
2023-08-22T06:11:27.495Z,21.30
2023-08-22T06:12:27.065Z,21.20
2023-08-22T06:13:27.059Z,21.06
2023-08-22T06:14:27.042Z,20.93
2023-08-22T06:15:27.028Z,20.87
2023-08-22T06:16:27.038Z,20.84
2023-08-22T06:17:27.061Z,20.74
2023-08-22T06:18:26.987Z,20.60
2023-08-22T06:19:26.974Z,20.60
2023-08-22T06:20:27.004Z,20.62
2023-08-22T06:21:26.948Z,20.63
2023-08-22T06:22:26.962Z,20.59
2023-08-22T06:23:26.920Z,20.58
2023-08-22T06:24:26.900Z,20.48
2023-08-22T06:25:27.922Z,20.44
2023-08-22T06:26:26.882Z,20.51
2023-08-22T06:27:26.899Z,20.63
2023-08-22T06:28:29.873Z,20.72
2023-08-22T06:29:29.851Z,20.77
2023-08-22T06:30:26.821Z,20.77
2023-08-22T06:31:26.834Z,20.80
2023-08-22T06:32:26.791Z,20.74
2023-08-22T06:33:26.830Z,20.77
2023-08-22T06:34:26.780Z,20.85
2023-08-22T06:35:26.751Z,20.93
2023-08-22T06:36:26.734Z,20.95
2023-08-22T06:37:26.755Z,20.96
2023-08-22T06:38:26.716Z,20.90
2023-08-22T06:39:26.725Z,20.80
2023-08-22T06:40:26.677Z,20.77
2023-08-22T06:41:26.706Z,20.81
2023-08-22T06:42:26.664Z,20.87
2023-08-22T06:43:26.698Z,20.88
2023-08-22T06:44:26.650Z,20.97
2023-08-22T06:45:26.669Z,21.03
2023-08-22T06:46:26.604Z,21.07
2023-08-22T06:47:26.605Z,21.05
2023-08-22T06:48:40.874Z,21.07
2023-08-22T06:49:30.564Z,21.14
2023-08-22T06:50:26.545Z,21.17
2023-08-22T06:51:26.568Z,21.22
2023-08-22T06:52:26.551Z,21.36
2023-08-22T06:53:26.510Z,21.48
2023-08-22T06:54:26.529Z,21.61
2023-08-22T06:55:26.483Z,21.73
2023-08-22T06:56:26.496Z,21.83
2023-08-22T06:57:26.469Z,21.92
2023-08-22T06:58:26.442Z,21.98
2023-08-22T06:59:26.435Z,22.06
2023-08-22T07:00:26.453Z,22.14
2023-08-22T07:01:26.440Z,22.18
2023-08-22T07:02:26.524Z,22.26
2023-08-22T07:03:26.494Z,22.38
2023-08-22T07:04:26.608Z,22.47
2023-08-22T07:05:26.383Z,22.55
2023-08-22T07:06:26.339Z,22.69
2023-08-22T07:07:26.366Z,22.81
2023-08-22T07:08:29.309Z,22.91
2023-08-22T07:09:29.303Z,23.00
2023-08-22T07:10:26.280Z,22.99
2023-08-22T07:11:26.283Z,23.06
2023-08-22T07:12:26.308Z,23.15
2023-08-22T07:13:26.325Z,23.21
2023-08-22T07:14:26.246Z,23.24
2023-08-22T07:15:26.210Z,23.25
2023-08-22T07:16:26.229Z,23.28
2023-08-22T07:17:26.230Z,23.23
2023-08-22T07:18:26.197Z,23.03
2023-08-22T07:19:39.607Z,22.96
2023-08-22T07:20:27.147Z,22.93
2023-08-22T07:21:26.139Z,22.87
2023-08-22T07:22:26.151Z,22.85
2023-08-22T07:23:26.114Z,22.90
2023-08-22T07:24:26.096Z,22.93
2023-08-22T07:25:26.078Z,22.93
2023-08-22T07:26:26.061Z,22.99
2023-08-22T07:27:26.071Z,23.03
2023-08-22T07:28:29.056Z,23.17
2023-08-22T07:29:29.016Z,23.25
2023-08-22T07:30:26.034Z,23.23
2023-08-22T07:31:26.081Z,23.36
2023-08-22T07:32:25.976Z,23.47
2023-08-22T07:33:25.987Z,23.47
2023-08-22T07:34:26.011Z,23.54
2023-08-22T07:35:25.930Z,23.59
2023-08-22T07:36:25.917Z,23.74
2023-08-22T07:37:25.922Z,23.87
2023-08-22T07:38:25.901Z,23.99
2023-08-22T07:39:28.436Z,23.98
2023-08-22T07:40:25.911Z,24.08
2023-08-22T07:41:25.878Z,24.10
2023-08-22T07:42:25.840Z,24.16
2023-08-22T07:43:25.833Z,24.23
2023-08-22T07:44:25.826Z,24.30
2023-08-22T07:45:27.211Z,24.36
2023-08-22T07:46:25.829Z,24.51
2023-08-22T07:47:25.836Z,24.57
2023-08-22T07:48:28.750Z,24.55
2023-08-22T07:49:28.736Z,24.57
2023-08-22T07:50:25.725Z,24.60
2023-08-22T07:51:25.776Z,24.60
2023-08-22T07:52:25.697Z,24.61
2023-08-22T07:53:25.682Z,24.57
2023-08-22T07:54:25.681Z,24.47
2023-08-22T07:55:25.655Z,24.40
2023-08-22T07:56:25.637Z,24.36
2023-08-22T07:57:25.666Z,24.30
2023-08-22T07:58:25.620Z,24.28
2023-08-22T07:59:25.630Z,24.28
2023-08-22T08:00:25.717Z,24.21
2023-08-22T08:01:25.666Z,24.24
2023-08-22T08:02:25.685Z,24.29
2023-08-22T08:03:25.697Z,24.36
2023-08-22T08:04:25.608Z,24.45
2023-08-22T08:05:25.517Z,24.51
2023-08-22T08:06:25.515Z,24.60
2023-08-22T08:07:25.496Z,24.68
2023-08-22T08:08:28.507Z,24.78
2023-08-22T08:09:34.890Z,24.84
2023-08-22T08:10:26.485Z,24.92
2023-08-22T08:11:25.452Z,25.04
2023-08-22T08:12:25.413Z,25.13
2023-08-22T08:13:25.426Z,25.22
2023-08-22T08:14:25.404Z,25.29
2023-08-22T08:15:25.404Z,25.33
2023-08-22T08:16:39.169Z,25.25
2023-08-22T08:17:26.400Z,25.29
2023-08-22T08:18:25.332Z,25.41
2023-08-22T08:19:27.571Z,25.46
2023-08-22T08:20:25.497Z,25.46
2023-08-22T08:21:25.324Z,25.47
2023-08-22T08:22:25.275Z,25.50
2023-08-22T08:23:25.272Z,25.53
2023-08-22T08:24:25.260Z,25.55
2023-08-22T08:25:25.285Z,25.60
2023-08-22T08:26:25.233Z,25.63
2023-08-22T08:27:25.212Z,25.58
2023-08-22T08:28:28.194Z,25.53
2023-08-22T08:29:28.177Z,25.51
2023-08-22T08:30:25.224Z,25.48
2023-08-22T08:31:25.160Z,25.43
2023-08-22T08:32:25.167Z,25.44
2023-08-22T08:33:25.125Z,25.44
2023-08-22T08:34:25.130Z,25.36
2023-08-22T08:35:25.131Z,25.32
2023-08-22T08:36:25.096Z,25.08
2023-08-22T08:37:25.105Z,24.78
2023-08-22T08:38:25.098Z,24.63
2023-08-22T08:39:25.064Z,24.61
2023-08-22T08:40:25.040Z,24.47
2023-08-22T08:41:25.044Z,24.48
2023-08-22T08:42:25.029Z,24.51
2023-08-22T08:43:25.024Z,24.50
2023-08-22T08:44:24.980Z,24.58
2023-08-22T08:45:24.975Z,24.65
2023-08-22T08:46:24.998Z,24.77
2023-08-22T08:47:24.955Z,24.93
2023-08-22T08:48:27.990Z,24.99
2023-08-22T08:49:27.917Z,24.93
2023-08-22T08:50:24.905Z,24.76
2023-08-22T08:51:24.917Z,24.60
2023-08-22T08:52:24.909Z,24.39
2023-08-22T08:53:24.877Z,24.47
2023-08-22T08:54:24.869Z,24.43
2023-08-22T08:55:24.851Z,24.47
2023-08-22T08:56:25.059Z,24.54
2023-08-22T08:57:24.846Z,24.47
2023-08-22T08:58:24.816Z,24.50
2023-08-22T08:59:24.780Z,24.42
2023-08-22T09:00:24.769Z,24.48
2023-08-22T09:01:24.841Z,24.38
2023-08-22T09:02:24.740Z,24.42
2023-08-22T09:03:26.149Z,24.54
2023-08-22T09:04:24.732Z,24.69
2023-08-22T09:05:24.806Z,24.77
2023-08-22T09:06:24.693Z,24.81
2023-08-22T09:07:24.688Z,24.84
2023-08-22T09:08:27.695Z,24.84
2023-08-22T09:09:27.685Z,24.80
2023-08-22T09:10:24.661Z,24.77
2023-08-22T09:11:24.637Z,24.66
2023-08-22T09:12:24.610Z,24.57
2023-08-22T09:13:24.653Z,24.50
2023-08-22T09:14:24.590Z,24.48
2023-08-22T09:15:24.583Z,24.47
2023-08-22T09:16:24.646Z,24.55
2023-08-22T09:17:24.556Z,24.57
2023-08-22T09:18:24.587Z,24.70
2023-08-22T09:19:24.575Z,24.80
2023-08-22T09:20:24.513Z,24.89
2023-08-22T09:21:24.498Z,24.81
2023-08-22T09:22:24.493Z,24.91
2023-08-22T09:23:24.471Z,24.91
2023-08-22T09:24:24.545Z,25.03
2023-08-22T09:25:24.456Z,25.06
2023-08-22T09:26:24.492Z,24.93
2023-08-22T09:27:24.425Z,24.98
2023-08-22T09:28:27.404Z,24.99
2023-08-22T09:29:27.440Z,25.11
2023-08-22T09:30:24.392Z,25.31
2023-08-22T09:31:24.552Z,25.44
2023-08-22T09:32:24.371Z,25.60
2023-08-22T09:33:24.341Z,25.75
2023-08-22T09:34:24.322Z,25.81
2023-08-22T09:35:24.345Z,25.77
2023-08-22T09:36:24.347Z,25.69
2023-08-22T09:37:24.278Z,25.58
2023-08-22T09:38:24.268Z,25.18
2023-08-22T09:39:24.259Z,24.85
2023-08-22T09:40:24.254Z,24.84
2023-08-22T09:41:26.827Z,24.80
2023-08-22T09:42:25.226Z,24.76
2023-08-22T09:43:24.198Z,24.68
2023-08-22T09:44:24.190Z,24.69
2023-08-22T09:45:24.193Z,24.80
2023-08-22T09:46:24.196Z,24.76
2023-08-22T09:47:24.142Z,24.69
2023-08-22T09:48:27.139Z,24.66
2023-08-22T09:49:27.144Z,24.77
2023-08-22T09:50:24.110Z,24.80
2023-08-22T09:51:24.126Z,24.70
2023-08-22T09:52:24.094Z,24.61
2023-08-22T09:53:24.099Z,24.60
2023-08-22T09:54:24.107Z,24.78
2023-08-22T09:55:24.061Z,24.70
2023-08-22T09:56:24.032Z,24.68
2023-08-22T09:57:24.043Z,24.58
2023-08-22T09:58:24.045Z,24.68
2023-08-22T09:59:23.994Z,24.77
2023-08-22T10:00:23.985Z,24.76
2023-08-22T10:01:27.431Z,24.81
2023-08-22T10:02:25.080Z,24.95
2023-08-22T10:03:24.145Z,25.03
2023-08-22T10:04:24.023Z,25.07
2023-08-22T10:05:23.913Z,25.13
2023-08-22T10:06:23.906Z,25.18
2023-08-22T10:07:23.923Z,25.17
2023-08-22T10:08:26.892Z,25.26
2023-08-22T10:09:26.892Z,25.31
2023-08-22T10:10:24.616Z,25.31
2023-08-22T10:11:23.860Z,25.32
2023-08-22T10:12:23.819Z,25.31
2023-08-22T10:13:23.809Z,25.47
2023-08-22T10:14:23.809Z,25.73
2023-08-22T10:15:23.814Z,25.95
2023-08-22T10:16:23.774Z,26.00
2023-08-22T10:17:23.745Z,25.80
2023-08-22T10:18:23.744Z,25.68
2023-08-22T10:19:23.732Z,25.62
2023-08-22T10:20:23.749Z,25.62
2023-08-22T10:21:23.704Z,25.78
2023-08-22T10:22:23.688Z,25.98
2023-08-22T10:23:23.661Z,26.25
2023-08-22T10:24:23.666Z,26.38
2023-08-22T10:25:23.666Z,26.55
2023-08-22T10:26:23.629Z,26.43
2023-08-22T10:27:23.605Z,26.36
2023-08-22T10:28:26.596Z,26.41
2023-08-22T10:29:26.579Z,26.48
2023-08-22T10:30:23.568Z,26.58
2023-08-22T10:31:23.629Z,26.38
2023-08-22T10:32:23.561Z,26.33
2023-08-22T10:34:23.545Z,26.19
2023-08-22T10:35:23.490Z,26.03
2023-08-22T10:36:23.504Z,26.07
2023-08-22T10:37:23.507Z,25.98
2023-08-22T10:38:23.475Z,26.16
2023-08-22T10:39:23.436Z,26.28
2023-08-22T10:40:23.463Z,26.09
2023-08-22T10:41:23.458Z,26.03
2023-08-22T10:42:23.400Z,26.06
2023-08-22T10:43:23.393Z,25.87
2023-08-22T10:44:23.372Z,25.72
2023-08-22T10:45:23.362Z,25.66
2023-08-22T10:46:23.402Z,25.66
2023-08-22T10:47:23.365Z,25.51
2023-08-22T10:48:26.319Z,25.47
2023-08-22T10:49:26.301Z,25.38
2023-08-22T10:50:23.296Z,25.54
2023-08-22T10:51:23.309Z,25.70
2023-08-22T10:52:23.258Z,25.85
2023-08-22T10:53:23.350Z,25.80
2023-08-22T10:54:23.236Z,25.98
2023-08-22T10:55:23.227Z,26.09
2023-08-22T10:56:23.200Z,26.09
2023-08-22T10:57:23.228Z,25.85
2023-08-22T10:58:23.221Z,25.88
2023-08-22T10:59:23.174Z,25.91
2023-08-22T11:00:23.274Z,25.78
2023-08-22T11:01:23.176Z,25.83
2023-08-22T11:02:23.122Z,25.99
2023-08-22T11:03:23.160Z,26.18
2023-08-22T11:04:23.149Z,26.48
2023-08-22T11:05:23.066Z,26.75
2023-08-22T11:06:23.058Z,26.88
2023-08-22T11:07:23.056Z,26.96
2023-08-22T11:08:27.478Z,26.96
2023-08-22T11:09:26.010Z,26.96
2023-08-22T11:10:22.998Z,27.02
2023-08-22T11:11:22.987Z,26.97
2023-08-22T11:12:22.976Z,27.02
2023-08-22T11:13:22.984Z,27.08
2023-08-22T11:14:22.971Z,27.20
2023-08-22T11:15:22.944Z,27.18
2023-08-22T11:16:22.965Z,27.12
2023-08-22T11:17:22.903Z,27.14
2023-08-22T11:18:23.022Z,27.17
2023-08-22T11:19:22.879Z,27.18
2023-08-22T11:20:23.062Z,27.14
2023-08-22T11:21:22.857Z,27.26
2023-08-22T11:22:22.896Z,27.39
2023-08-22T11:23:22.828Z,27.47
2023-08-22T11:24:22.851Z,27.63
2023-08-22T11:25:22.799Z,27.70
2023-08-22T11:26:22.796Z,27.75
2023-08-22T11:27:22.822Z,27.93
2023-08-22T11:28:25.830Z,28.00
2023-08-22T11:29:25.766Z,27.95
2023-08-22T11:30:22.903Z,27.85
2023-08-22T11:31:22.881Z,27.80
2023-08-22T11:32:22.776Z,27.70
2023-08-22T11:33:22.718Z,27.51
2023-08-22T11:34:22.818Z,27.29
2023-08-22T11:35:22.675Z,26.83
2023-08-22T11:36:26.606Z,26.73
2023-08-22T11:37:23.642Z,26.93
2023-08-22T11:38:22.623Z,27.15
2023-08-22T11:39:22.637Z,27.11
2023-08-22T11:40:22.593Z,27.12
2023-08-22T11:41:22.597Z,27.21
2023-08-22T11:42:22.570Z,27.27
2023-08-22T11:43:22.574Z,27.32
2023-08-22T11:44:22.567Z,27.35
2023-08-22T11:45:23.214Z,27.40
2023-08-22T11:46:22.574Z,27.45
2023-08-22T11:47:22.536Z,27.54
2023-08-22T11:48:25.492Z,27.68
2023-08-22T11:49:25.518Z,27.73
2023-08-22T11:50:24.918Z,27.80
2023-08-22T11:51:22.494Z,27.77
2023-08-22T11:52:22.433Z,27.64
2023-08-22T11:53:22.419Z,27.73
2023-08-22T11:54:22.469Z,27.54
2023-08-22T11:55:22.400Z,27.32
2023-08-22T11:56:22.386Z,27.21
2023-08-22T11:57:22.404Z,27.17
2023-08-22T11:58:22.359Z,27.17
2023-08-22T11:59:22.377Z,27.25
2023-08-22T12:00:22.338Z,27.33
2023-08-22T12:01:22.336Z,27.18
2023-08-22T12:02:22.330Z,27.26
2023-08-22T12:03:22.316Z,27.40
2023-08-22T12:04:22.312Z,27.59
2023-08-22T12:05:22.268Z,27.60
2023-08-22T12:06:22.276Z,27.78
2023-08-22T12:07:22.252Z,27.93
2023-08-22T12:08:25.235Z,28.04
2023-08-22T12:09:25.214Z,28.15
2023-08-22T12:10:22.244Z,28.27
2023-08-22T12:11:22.232Z,28.30
2023-08-22T12:12:22.173Z,28.33
2023-08-22T12:13:22.303Z,28.25
2023-08-22T12:14:22.139Z,28.23
2023-08-22T12:15:22.125Z,28.27
2023-08-22T12:16:22.246Z,28.17
2023-08-22T12:17:22.142Z,28.22
2023-08-22T12:18:22.083Z,28.25
2023-08-22T12:19:22.089Z,28.20
2023-08-22T12:20:22.068Z,28.33
2023-08-22T12:21:22.083Z,28.37
2023-08-22T12:22:22.086Z,28.38
2023-08-22T12:23:22.028Z,28.47
2023-08-22T12:24:22.008Z,28.44
2023-08-22T12:25:21.991Z,28.30
2023-08-22T12:26:21.981Z,28.38
2023-08-22T12:27:21.971Z,28.41
2023-08-22T12:28:24.987Z,28.51
2023-08-22T12:29:24.965Z,28.49
2023-08-22T12:30:22.011Z,28.54
2023-08-22T12:31:21.911Z,28.51
2023-08-22T12:32:21.919Z,28.41
2023-08-22T12:33:21.925Z,28.47
2023-08-22T12:34:21.906Z,28.54
2023-08-22T12:35:21.871Z,28.42
2023-08-22T12:36:21.845Z,28.47
2023-08-22T12:37:21.843Z,28.44
2023-08-22T12:38:21.827Z,28.41
2023-08-22T12:39:21.846Z,28.45
2023-08-22T12:40:21.791Z,28.48
2023-08-22T12:41:21.783Z,28.54
2023-08-22T12:42:21.769Z,28.47
2023-08-22T12:43:21.763Z,28.30
2023-08-22T12:44:21.763Z,27.93
2023-08-22T12:45:21.784Z,28.01
2023-08-22T12:46:21.759Z,28.08
2023-08-22T12:47:21.698Z,28.08
2023-08-22T12:48:24.813Z,27.95
2023-08-22T12:49:24.683Z,27.74
2023-08-22T12:50:21.702Z,27.67
2023-08-22T12:51:21.665Z,27.71
2023-08-22T12:52:21.624Z,27.55
2023-08-22T12:53:21.616Z,27.48